Aviation Digital Data Service (ADDS)

Output produced by METARs form (0103 UTC 24 May 2022)
found at http://www.aviationweather.gov/metar/data/
 
HRYR 240100Z 32004KT 9999 SCT025 SCT100 19/16 Q1018 NOSIG
HRYR 232300Z 2400/2506 27005KT 9999 SCT025 BKN100 
     BECMG 2406/2409 15008KT BKN023 
     TEMPO 2411/2416 09012G24KT TSRA FEW022CB BKN025 
     BECMG 2419/2422 32005KT NSW SCT025 SCT100 
     BECMG 2502/2505 00000KT 3000 BR